Time;durP1;ratioP1;P1;durP2;ratioP2;P2;SDS_P1;SDS_P2;PMS_P1;PMS_P2;Temp;Humidity;BMP_temperature;BMP_pressure;BME280_temperature;BME280_humidity;BME280_pressure;Samples;Min_cycle;Max_cycle;Signal;HPM_P1;HPM_P2
2023/09/13 00:00:48;;;;;;;1.15;0.57;;;15.00;99.90;;;;;;5052451;28;20156;-76
2023/09/13 00:03:15;;;;;;;0.85;0.63;;;15.00;99.90;;;;;;5060204;28;20048;-76
2023/09/13 00:05:42;;;;;;;1.05;0.55;;;14.90;99.90;;;;;;5069411;28;20372;-76
2023/09/13 00:08:09;;;;;;;0.25;0.25;;;14.90;99.90;;;;;;5038248;28;20749;-75
2023/09/13 00:10:36;;;;;;;0.40;0.40;;;14.90;99.90;;;;;;5058443;28;20106;-76
2023/09/13 00:13:03;;;;;;;0.68;0.40;;;15.00;99.90;;;;;;5059554;28;20075;-76
2023/09/13 00:15:30;;;;;;;0.85;0.40;;;15.00;99.90;;;;;;5071640;28;20131;-76
2023/09/13 00:17:57;;;;;;;0.30;0.30;;;15.00;99.90;;;;;;5070336;28;20218;-76
2023/09/13 00:20:24;;;;;;;0.57;0.50;;;15.00;99.90;;;;;;5052315;28;20056;-77
2023/09/13 00:22:50;;;;;;;0.88;0.52;;;15.00;99.90;;;;;;5052387;28;20044;-76
2023/09/13 00:25:17;;;;;;;0.73;0.35;;;15.00;99.90;;;;;;5065977;28;20109;-76
2023/09/13 00:27:44;;;;;;;0.65;0.45;;;15.00;99.90;;;;;;5067881;28;20040;-76
2023/09/13 00:30:11;;;;;;;1.13;0.88;;;15.10;99.90;;;;;;5069305;28;20071;-77
2023/09/13 00:32:38;;;;;;;0.68;0.30;;;15.10;99.90;;;;;;5067655;28;20128;-77
2023/09/13 00:35:05;;;;;;;0.50;0.30;;;15.20;99.90;;;;;;5067445;28;20066;-76
2023/09/13 00:37:32;;;;;;;0.85;0.43;;;15.20;99.90;;;;;;5071370;28;20519;-76
2023/09/13 00:39:59;;;;;;;1.35;0.32;;;15.20;99.90;;;;;;5072048;28;20330;-76
2023/09/13 00:42:28;;;;;;;0.52;0.43;;;15.20;99.90;;;;;;5054942;28;20044;-76
2023/09/13 00:44:54;;;;;;;1.38;0.50;;;15.20;99.90;;;;;;5051166;28;20442;-76
2023/09/13 00:47:21;;;;;;;0.82;0.55;;;15.30;99.90;;;;;;5069163;28;20063;-76
2023/09/13 00:49:48;;;;;;;0.77;0.60;;;15.30;99.90;;;;;;5068701;28;20178;-76
2023/09/13 00:52:15;;;;;;;1.10;0.70;;;15.20;99.90;;;;;;5075852;28;20052;-76
2023/09/13 00:54:41;;;;;;;0.50;0.50;;;15.20;99.90;;;;;;5057291;28;20074;-76
2023/09/13 00:57:08;;;;;;;2.55;0.88;;;15.20;99.90;;;;;;5040051;28;20571;-76
2023/09/13 00:59:35;;;;;;;1.23;0.60;;;15.20;99.90;;;;;;5055856;28;20047;-77
2023/09/13 01:02:02;;;;;;;0.50;0.40;;;15.30;99.90;;;;;;5071577;28;20452;-77
2023/09/13 01:04:29;;;;;;;0.50;0.50;;;15.30;99.90;;;;;;5052692;28;20072;-76
2023/09/13 01:06:56;;;;;;;0.50;0.50;;;15.30;99.90;;;;;;5088626;28;20044;-76
2023/09/13 01:09:23;;;;;;;0.68;0.40;;;15.30;99.90;;;;;;5080530;28;20044;-77
2023/09/13 01:11:50;;;;;;;0.93;0.40;;;15.30;99.90;;;;;;5080029;28;20051;-76
2023/09/13 01:14:18;;;;;;;0.57;0.50;;;15.30;99.90;;;;;;5078414;28;20064;-76
2023/09/13 01:17:15;;;;;;;1.25;0.60;;;15.30;99.90;;;;;;5070282;28;20113;-76
2023/09/13 01:20:07;;;;;;;1.25;0.40;;;15.30;99.90;;;;;;5063049;28;20054;-76
2023/09/13 01:23:05;;;;;;;1.15;0.60;;;15.30;99.90;;;;;;5071044;28;20044;-76
2023/09/13 01:25:53;;;;;;;2.05;0.60;;;15.30;99.90;;;;;;5076217;28;20048;-76
2023/09/13 01:28:40;;;;;;;0.85;0.60;;;15.30;99.90;;;;;;5064593;28;20193;-76
2023/09/13 01:31:10;;;;;;;0.63;0.60;;;15.30;99.90;;;;;;5088515;28;20072;-76
2023/09/13 01:33:37;;;;;;;0.55;0.40;;;15.40;99.90;;;;;;5070106;28;20148;-77
2023/09/13 01:36:04;;;;;;;0.77;0.50;;;15.40;99.90;;;;;;5071740;28;20052;-76
2023/09/13 01:38:31;;;;;;;1.35;0.40;;;15.40;99.90;;;;;;5056308;28;20040;-76
2023/09/13 01:41:11;;;;;;;3.20;0.73;;;15.40;99.90;;;;;;5059872;28;20127;-76
2023/09/13 01:43:39;;;;;;;1.25;0.57;;;15.50;99.90;;;;;;5079677;28;20257;-76
2023/09/13 01:46:07;;;;;;;0.65;0.50;;;15.40;99.90;;;;;;5041887;28;20044;-76
2023/09/13 01:48:35;;;;;;;1.75;0.90;;;15.40;96.30;;;;;;5039037;28;20629;-76
2023/09/13 01:51:02;;;;;;;1.90;0.95;;;15.50;75.80;;;;;;5072091;28;20542;-76
2023/09/13 01:53:29;;;;;;;1.10;0.60;;;15.40;31.30;;;;;;5059583;28;20074;-76
2023/09/13 01:55:56;;;;;;;0.90;0.77;;;15.40;51.60;;;;;;5054863;28;20527;-76
2023/09/13 01:58:23;;;;;;;1.23;0.68;;;15.30;4.70;;;;;;5073295;28;20098;-76
2023/09/13 02:00:50;;;;;;;1.35;1.05;;;15.30;19.90;;;;;;5081439;28;20047;-77
2023/09/13 02:03:17;;;;;;;1.42;0.80;;;15.30;22.60;;;;;;5079017;28;20041;-76
2023/09/13 02:05:44;;;;;;;2.40;1.10;;;15.30;23.40;;;;;;5061108;28;20117;-75
2023/09/13 02:08:13;;;;;;;1.55;0.90;;;15.30;1.00;;;;;;5076925;28;20037;-75
2023/09/13 02:10:40;;;;;;;1.13;0.80;;;15.30;1.00;;;;;;5071651;28;20529;-76
2023/09/13 02:13:07;;;;;;;2.53;1.08;;;15.30;9.60;;;;;;5074573;28;20047;-76
2023/09/13 02:15:39;;;;;;;1.70;0.90;;;15.30;1.00;;;;;;5043040;28;20431;-76
2023/09/13 02:18:07;;;;;;;1.25;0.93;;;15.20;6.40;;;;;;5040175;28;20170;-76
2023/09/13 02:20:34;;;;;;;2.55;1.38;;;15.20;2.70;;;;;;5044713;28;20040;-76
2023/09/13 02:23:00;;;;;;;2.53;1.40;;;15.10;1.00;;;;;;5061624;28;20130;-76
2023/09/13 02:25:27;;;;;;;1.70;1.13;;;15.20;26.40;;;;;;5078327;28;20147;-76
2023/09/13 02:27:54;;;;;;;3.92;1.05;;;15.10;10.70;;;;;;5061949;28;20056;-76
2023/09/13 02:30:22;;;;;;;3.55;1.25;;;15.10;17.90;;;;;;5043854;28;20819;-77
2023/09/13 02:32:49;;;;;;;3.60;1.27;;;15.10;13.10;;;;;;5058338;28;20492;-76
2023/09/13 02:35:16;;;;;;;2.15;1.30;;;15.10;24.30;;;;;;5060898;28;20472;-76
2023/09/13 02:37:43;;;;;;;2.08;1.02;;;15.00;32.00;;;;;;5078840;28;20052;-76
2023/09/13 02:40:10;;;;;;;2.25;1.23;;;15.10;34.30;;;;;;5076528;28;20640;-76
2023/09/13 02:42:37;;;;;;;2.22;1.35;;;15.00;38.50;;;;;;5072412;28;20039;-76
2023/09/13 02:45:05;;;;;;;2.72;1.50;;;15.00;44.90;;;;;;5059526;28;20683;-76
2023/09/13 02:47:31;;;;;;;2.05;1.30;;;15.00;47.80;;;;;;5077449;28;20414;-76
2023/09/13 02:49:58;;;;;;;2.75;1.40;;;15.00;50.70;;;;;;5043516;28;20048;-76
2023/09/13 02:52:33;;;;;;;3.05;1.10;;;15.00;61.20;;;;;;5080203;28;20510;-76
2023/09/13 02:55:00;;;;;;;2.25;1.23;;;15.10;42.80;;;;;;5056592;28;20037;-76
2023/09/13 02:57:27;;;;;;;3.17;1.52;;;15.10;55.10;;;;;;5059009;28;20125;-77
2023/09/13 02:59:54;;;;;;;3.03;1.50;;;15.00;74.70;;;;;;5076696;28;20371;-76
2023/09/13 03:02:21;;;;;;;2.08;1.23;;;15.00;66.20;;;;;;5044458;28;20391;-76
2023/09/13 03:04:51;;;;;;;2.95;1.23;;;15.10;79.40;;;;;;5058119;28;20052;-76
2023/09/13 03:07:19;;;;;;;2.13;1.17;;;15.10;64.00;;;;;;5044247;28;20044;-76
2023/09/13 03:09:46;;;;;;;1.88;1.10;;;15.10;67.30;;;;;;5054637;28;20147;-76
2023/09/13 03:12:13;;;;;;;2.22;1.35;;;15.10;71.90;;;;;;5054483;28;20052;-76
2023/09/13 03:14:40;;;;;;;2.45;1.15;;;15.10;62.40;;;;;;5075251;28;20052;-76
2023/09/13 03:17:06;;;;;;;2.30;0.93;;;15.10;55.50;;;;;;5060381;28;20121;-76
2023/09/13 03:19:33;;;;;;;5.45;1.52;;;15.10;66.90;;;;;;5059599;28;20437;-77
2023/09/13 03:22:00;;;;;;;2.38;1.27;;;15.10;59.60;;;;;;5078897;28;20159;-77
2023/09/13 03:24:27;;;;;;;3.70;1.00;;;15.10;68.70;;;;;;5073480;28;20473;-77
2023/09/13 03:26:54;;;;;;;1.25;1.00;;;15.10;72.50;;;;;;5069949;28;20049;-76
2023/09/13 03:29:21;;;;;;;1.05;0.90;;;15.10;71.00;;;;;;5072483;28;20407;-76
2023/09/13 03:31:48;;;;;;;3.05;1.17;;;15.10;78.50;;;;;;5052123;28;20043;-76
2023/09/13 03:34:15;;;;;;;1.92;1.00;;;15.10;76.80;;;;;;5076936;28;20055;-76
2023/09/13 03:36:43;;;;;;;1.88;1.20;;;15.10;80.10;;;;;;5073796;28;20135;-77
2023/09/13 03:39:10;;;;;;;2.28;1.15;;;15.00;91.00;;;;;;5042681;28;20047;-76
2023/09/13 03:41:36;;;;;;;3.30;1.30;;;15.00;91.20;;;;;;5054386;28;20056;-77
2023/09/13 03:44:04;;;;;;;1.90;1.20;;;15.00;93.60;;;;;;5073674;28;20434;-75
2023/09/13 03:46:30;;;;;;;3.20;1.55;;;15.00;91.90;;;;;;5069013;28;20570;-76
2023/09/13 03:48:57;;;;;;;2.20;1.33;;;15.00;90.90;;;;;;5053319;28;20131;-76
2023/09/13 03:51:24;;;;;;;3.03;1.15;;;15.00;96.20;;;;;;5073734;28;20128;-75
2023/09/13 03:53:51;;;;;;;1.45;1.10;;;15.00;94.50;;;;;;5063620;28;20453;-76
2023/09/13 03:56:18;;;;;;;1.80;1.00;;;15.00;95.80;;;;;;5059696;28;20048;-76
2023/09/13 03:58:45;;;;;;;1.75;1.00;;;15.10;99.70;;;;;;5079197;28;20121;-76
2023/09/13 04:01:11;;;;;;;1.88;1.13;;;15.10;96.30;;;;;;5075232;28;20611;-75
2023/09/13 04:03:38;;;;;;;1.15;0.85;;;15.10;94.20;;;;;;5057289;28;20052;-75
2023/09/13 04:06:05;;;;;;;1.10;0.95;;;15.10;94.50;;;;;;5071120;28;20041;-76
2023/09/13 04:08:32;;;;;;;1.90;0.98;;;15.10;93.60;;;;;;5070359;28;20045;-76
2023/09/13 04:10:59;;;;;;;1.60;0.90;;;15.10;90.90;;;;;;5053067;28;20236;-76
2023/09/13 04:13:26;;;;;;;2.55;1.27;;;15.10;95.40;;;;;;5052657;28;20110;-76
2023/09/13 04:15:53;;;;;;;1.23;0.70;;;15.10;90.00;;;;;;5051457;28;20071;-76
2023/09/13 04:18:20;;;;;;;1.95;1.00;;;15.20;94.90;;;;;;5076252;28;20037;-77
2023/09/13 04:20:46;;;;;;;2.08;1.00;;;15.20;87.40;;;;;;5043378;28;20470;-76
2023/09/13 04:23:14;;;;;;;2.45;0.95;;;15.20;90.70;;;;;;5072115;28;20125;-76
2023/09/13 04:25:41;;;;;;;1.92;1.10;;;15.20;90.20;;;;;;5043134;28;20596;-76
2023/09/13 04:28:08;;;;;;;2.63;1.23;;;15.10;90.80;;;;;;5072423;28;20129;-76
2023/09/13 04:30:35;;;;;;;2.65;1.20;;;15.10;87.10;;;;;;5070918;28;20044;-76
2023/09/13 04:33:02;;;;;;;2.67;1.02;;;15.10;70.10;;;;;;5074659;28;20126;-76
2023/09/13 04:35:29;;;;;;;2.50;1.27;;;15.10;73.40;;;;;;5063534;28;20040;-76
2023/09/13 04:37:57;;;;;;;1.10;0.80;;;15.10;90.00;;;;;;5062828;28;20504;-77
2023/09/13 04:40:24;;;;;;;3.22;0.95;;;15.20;84.10;;;;;;5080591;28;20051;-77
2023/09/13 04:42:55;;;;;;;2.50;1.42;;;15.10;83.30;;;;;;5062532;28;20432;-76
2023/09/13 04:45:22;;;;;;;1.20;0.88;;;15.10;83.90;;;;;;5076132;28;20053;-76
2023/09/13 04:47:50;;;;;;;4.00;1.10;;;15.20;85.00;;;;;;5077126;28;20045;-76
2023/09/13 04:50:17;;;;;;;2.05;0.85;;;15.10;85.20;;;;;;5038657;28;20040;-76
2023/09/13 04:52:44;;;;;;;1.55;0.80;;;15.10;88.50;;;;;;5072326;28;20052;-77
2023/09/13 04:55:11;;;;;;;1.70;0.80;;;15.20;87.90;;;;;;5077094;28;20048;-76
2023/09/13 04:57:38;;;;;;;1.30;0.88;;;15.20;87.90;;;;;;5073797;28;20044;-77
2023/09/13 05:00:10;;;;;;;1.83;0.90;;;15.10;91.60;;;;;;5074806;28;20036;-77
2023/09/13 05:02:38;;;;;;;;;;;15.20;97.60;;;;;;5073734;28;20175;-76
2023/09/13 05:05:08;;;;;;;1.00;0.82;;;15.20;94.10;;;;;;5074100;28;19924;-77
2023/09/13 05:07:35;;;;;;;1.23;0.80;;;15.20;96.00;;;;;;5073476;28;20091;-76
2023/09/13 05:10:01;;;;;;;1.60;0.82;;;15.20;95.50;;;;;;5059314;28;20418;-77
2023/09/13 05:12:29;;;;;;;1.75;0.90;;;15.20;98.40;;;;;;5074984;28;20127;-76
2023/09/13 05:14:55;;;;;;;1.60;0.70;;;15.20;95.40;;;;;;5072397;28;20048;-78
2023/09/13 05:17:23;;;;;;;1.13;0.80;;;15.20;95.20;;;;;;5091554;28;20523;-77
2023/09/13 05:19:50;;;;;;;1.65;0.80;;;15.20;92.20;;;;;;5059298;28;20502;-76
2023/09/13 05:22:17;;;;;;;1.73;0.98;;;15.20;90.90;;;;;;5075326;28;20654;-77
2023/09/13 05:24:44;;;;;;;2.00;1.10;;;15.20;94.50;;;;;;5072454;28;20063;-76
2023/09/13 05:27:11;;;;;;;0.70;0.60;;;15.20;90.80;;;;;;5073171;28;20056;-74
2023/09/13 05:29:38;;;;;;;0.93;0.63;;;15.20;95.00;;;;;;5074742;28;20105;-75
2023/09/13 05:32:05;;;;;;;1.35;0.70;;;15.20;88.80;;;;;;5055508;28;20367;-75
2023/09/13 05:34:32;;;;;;;1.05;0.70;;;15.20;93.00;;;;;;5080601;28;20093;-75
2023/09/13 05:36:59;;;;;;;0.93;0.70;;;15.20;94.50;;;;;;5067223;28;20860;-76
2023/09/13 05:39:26;;;;;;;0.95;0.85;;;15.30;94.70;;;;;;5081566;28;20064;-76
2023/09/13 05:41:55;;;;;;;0.95;0.73;;;15.30;92.60;;;;;;5039681;28;20102;-76
2023/09/13 05:44:24;;;;;;;0.93;0.70;;;15.30;90.10;;;;;;5090772;28;20052;-76
2023/09/13 05:46:55;;;;;;;1.48;0.73;;;15.30;71.00;;;;;;5075059;28;20046;-76
2023/09/13 05:49:23;;;;;;;1.60;0.80;;;15.40;85.40;;;;;;5080151;28;20473;-76
2023/09/13 05:51:50;;;;;;;2.42;1.10;;;15.40;70.70;;;;;;5065239;28;20051;-77
2023/09/13 05:54:17;;;;;;;1.63;0.95;;;15.40;62.70;;;;;;5068195;28;20044;-77
2023/09/13 05:56:43;;;;;;;1.33;0.80;;;15.40;67.10;;;;;;5082876;28;20071;-77
2023/09/13 05:59:10;;;;;;;1.90;0.82;;;15.40;55.20;;;;;;5067133;28;20151;-77
2023/09/13 06:01:38;;;;;;;1.33;0.88;;;15.40;48.90;;;;;;5080206;28;20060;-77
2023/09/13 06:04:07;;;;;;;1.95;1.08;;;15.30;43.50;;;;;;5076211;28;20044;-76
2023/09/13 06:06:35;;;;;;;2.33;1.17;;;15.30;56.80;;;;;;5077687;28;20071;-76
2023/09/13 06:09:03;;;;;;;2.33;1.20;;;15.30;41.50;;;;;;5082893;28;20131;-77
2023/09/13 06:11:31;;;;;;;2.17;1.20;;;15.30;54.80;;;;;;5068342;28;20044;-76
2023/09/13 06:13:58;;;;;;;1.40;1.00;;;15.30;43.30;;;;;;5082753;28;22409;-76
2023/09/13 06:16:25;;;;;;;2.22;1.08;;;15.30;32.50;;;;;;5075418;28;20066;-77
2023/09/13 06:18:52;;;;;;;2.67;1.23;;;15.40;42.50;;;;;;5064516;28;20039;-76
2023/09/13 06:21:19;;;;;;;1.60;1.00;;;15.40;47.30;;;;;;5085889;28;20059;-76
2023/09/13 06:23:49;;;;;;;1.45;0.98;;;15.50;29.00;;;;;;5081973;28;20040;-77
2023/09/13 06:26:16;;;;;;;1.48;1.05;;;15.50;18.40;;;;;;5070268;28;20063;-76
2023/09/13 06:28:43;;;;;;;1.50;0.80;;;15.60;13.20;;;;;;5081521;28;20051;-76
2023/09/13 06:31:10;;;;;;;2.13;1.00;;;15.50;11.80;;;;;;5081915;28;20056;-76
2023/09/13 06:33:57;;;;;;;1.48;0.90;;;15.50;7.80;;;;;;5066703;28;20608;-76
2023/09/13 06:36:27;;;;;;;2.58;1.10;;;15.50;8.40;;;;;;5044763;28;20056;-76
2023/09/13 06:38:55;;;;;;;2.13;1.20;;;15.40;13.00;;;;;;5080836;28;20519;-76
2023/09/13 06:41:22;;;;;;;1.77;0.95;;;15.30;17.50;;;;;;5069104;28;20440;-75
2023/09/13 06:43:49;;;;;;;3.90;1.45;;;15.30;23.10;;;;;;5086928;28;20048;-76
2023/09/13 06:46:37;;;;;;;3.83;1.63;;;15.20;35.40;;;;;;5085431;28;20446;-76
2023/09/13 06:49:04;;;;;;;3.03;1.42;;;15.20;41.40;;;;;;5052215;28;20044;-76
2023/09/13 06:51:34;;;;;;;3.92;1.65;;;15.20;45.70;;;;;;5086284;28;20043;-75
2023/09/13 06:54:18;;;;;;;3.70;1.83;;;15.20;38.00;;;;;;5086483;28;20058;-75
2023/09/13 06:56:49;;;;;;;2.15;1.45;;;15.20;34.20;;;;;;5084948;28;20087;-75
2023/09/13 06:59:19;;;;;;;2.67;1.70;;;15.20;47.20;;;;;;5069339;28;20097;-76
2023/09/13 07:01:47;;;;;;;2.42;1.30;;;15.30;17.30;;;;;;5082833;28;20071;-75
2023/09/13 07:04:17;;;;;;;1.65;1.10;;;15.40;10.00;;;;;;5082823;28;20101;-75
2023/09/13 07:06:58;;;;;;;2.00;1.10;;;15.40;6.60;;;;;;5084084;28;20048;-75
2023/09/13 07:09:25;;;;;;;1.70;1.10;;;15.40;1.00;;;;;;5084644;28;20044;-75
2023/09/13 07:11:51;;;;;;;2.03;1.20;;;15.50;1.00;;;;;;5068545;28;20356;-76
2023/09/13 07:14:18;;;;;;;2.42;1.10;;;15.50;1.00;;;;;;5084985;28;20128;-76
2023/09/13 07:16:46;;;;;;;2.05;1.13;;;15.60;1.00;;;;;;5063456;28;20056;-76
2023/09/13 07:19:13;;;;;;;2.17;1.63;;;15.70;1.00;;;;;;5086782;28;20052;-76
2023/09/13 07:21:40;;;;;;;3.65;1.20;;;15.70;1.00;;;;;;5084434;28;20044;-76
2023/09/13 07:24:09;;;;;;;2.10;1.35;;;15.80;1.00;;;;;;5079042;28;20052;-76
2023/09/13 07:26:36;;;;;;;3.72;1.60;;;15.90;1.00;;;;;;5052208;28;20047;-76
2023/09/13 07:29:03;;;;;;;3.33;1.92;;;15.80;1.00;;;;;;5076486;28;20048;-76
2023/09/13 07:31:30;;;;;;;1.67;1.10;;;15.90;1.00;;;;;;5082880;28;20093;-76
2023/09/13 07:34:02;;;;;;;2.67;1.30;;;15.90;1.00;;;;;;5084112;28;20099;-76
2023/09/13 07:36:29;;;;;;;3.90;1.42;;;16.00;1.00;;;;;;5084441;28;20048;-76
2023/09/13 07:38:56;;;;;;;2.05;1.17;;;16.10;1.00;;;;;;5067995;28;20055;-76
2023/09/13 07:41:23;;;;;;;2.80;1.67;;;16.20;1.00;;;;;;5084470;28;20549;-76
2023/09/13 07:43:49;;;;;;;3.33;1.42;;;16.20;1.00;;;;;;5086139;28;20571;-76
2023/09/13 07:46:16;;;;;;;2.85;1.10;;;16.30;1.00;;;;;;5082372;28;20078;-76
2023/09/13 07:48:43;;;;;;;1.42;0.98;;;16.30;1.00;;;;;;5085682;28;20676;-76
2023/09/13 07:51:11;;;;;;;2.28;1.20;;;16.50;1.00;;;;;;5085541;28;20107;-76
2023/09/13 07:53:37;;;;;;;3.20;1.40;;;16.40;99.90;;;;;;5084447;28;20484;-76
2023/09/13 07:56:04;;;;;;;2.78;1.25;;;16.50;99.90;;;;;;5081354;28;20043;-76
2023/09/13 07:58:31;;;;;;;2.85;1.10;;;16.50;99.90;;;;;;5054945;28;20051;-74
2023/09/13 08:00:58;;;;;;;1.80;1.27;;;16.50;99.90;;;;;;5076211;28;20058;-76
2023/09/13 08:03:25;;;;;;;3.78;1.67;;;16.60;99.90;;;;;;5057636;28;20051;-75
2023/09/13 08:05:53;;;;;;;2.72;1.38;;;16.60;99.90;;;;;;5061300;28;21146;-75
2023/09/13 08:08:23;;;;;;;3.92;1.67;;;16.80;99.90;;;;;;5075939;28;20084;-76
2023/09/13 08:10:50;;;;;;;3.05;1.70;;;16.70;99.90;;;;;;5078844;28;20047;-75
2023/09/13 08:13:20;;;;;;;3.65;1.45;;;16.70;99.90;;;;;;5081897;28;20052;-75
2023/09/13 08:15:48;;;;;;;2.40;1.27;;;16.80;99.90;;;;;;5078697;28;20047;-76
2023/09/13 08:18:16;;;;;;;1.42;0.93;;;17.00;99.90;;;;;;5078732;28;20048;-76
2023/09/13 08:20:43;;;;;;;3.28;1.20;;;17.20;99.90;;;;;;5063196;28;20052;-76
2023/09/13 08:23:10;;;;;;;2.22;1.33;;;17.20;99.90;;;;;;5081168;28;20056;-76
2023/09/13 08:25:37;;;;;;;1.90;1.27;;;17.30;99.90;;;;;;5079977;28;20054;-76
2023/09/13 08:28:05;;;;;;;3.58;1.60;;;17.50;99.90;;;;;;5077582;28;20132;-78
2023/09/13 08:30:32;;;;;;;2.10;1.17;;;17.40;95.00;;;;;;5058460;28;20827;-79
2023/09/13 08:32:59;;;;;;;2.35;1.13;;;17.50;99.90;;;;;;5096580;28;20048;-81
2023/09/13 08:35:26;;;;;;;1.52;1.00;;;17.50;95.10;;;;;;5075165;28;20052;-81
2023/09/13 08:37:53;;;;;;;1.60;1.27;;;17.70;91.20;;;;;;5064306;28;20053;-81
2023/09/13 08:40:20;;;;;;;1.23;0.68;;;18.00;89.00;;;;;;5079890;28;20044;-81
2023/09/13 08:42:47;;;;;;;2.92;0.80;;;18.20;1.00;;;;;;5071551;28;20056;-81
2023/09/13 08:45:13;;;;;;;2.35;1.10;;;18.20;1.00;;;;;;5070161;28;20056;-82
2023/09/13 08:47:43;;;;;;;2.53;1.30;;;18.10;1.00;;;;;;5071576;28;20059;-81
2023/09/13 08:50:27;;;;;;;1.80;1.35;;;18.00;1.00;;;;;;5073409;28;20570;-81
2023/09/13 08:52:55;;;;;;;2.53;1.08;;;18.10;1.00;;;;;;5052404;28;20052;-81
2023/09/13 08:55:22;;;;;;;3.00;1.17;;;18.00;1.00;;;;;;5084191;28;20055;-81
2023/09/13 08:57:49;;;;;;;1.90;1.08;;;18.10;1.00;;;;;;5053952;28;20047;-82
2023/09/13 09:00:16;;;;;;;1.42;1.10;;;18.30;1.00;;;;;;5069771;28;20040;-81
2023/09/13 09:02:43;;;;;;;2.08;1.20;;;18.40;99.90;;;;;;5054420;28;20044;-81
2023/09/13 09:05:11;;;;;;;1.60;0.90;;;18.50;99.90;;;;;;5053739;28;20139;-82
2023/09/13 09:07:40;;;;;;;2.03;1.15;;;18.50;99.90;;;;;;5070896;28;20051;-81
2023/09/13 09:10:11;;;;;;;1.48;1.02;;;18.50;99.90;;;;;;5087188;28;20577;-81
2023/09/13 09:12:42;;;;;;;1.73;1.27;;;18.40;99.90;;;;;;5071192;28;20058;-81
2023/09/13 09:15:10;;;;;;;2.17;1.30;;;18.20;99.90;;;;;;5050416;28;20063;-82
2023/09/13 09:17:37;;;;;;;4.35;1.60;;;18.20;99.90;;;;;;5065770;28;20076;-82
2023/09/13 09:20:04;;;;;;;1.33;0.88;;;18.20;99.90;;;;;;5053510;28;20386;-81
2023/09/13 09:22:31;;;;;;;2.53;1.23;;;18.50;99.90;;;;;;5069958;28;20047;-81
2023/09/13 09:24:59;;;;;;;1.60;0.98;;;18.70;99.90;;;;;;5067495;28;20184;-81
2023/09/13 09:27:26;;;;;;;1.70;1.10;;;18.70;72.70;;;;;;5050666;28;20044;-81
2023/09/13 09:30:00;;;;;;;2.08;1.25;;;18.60;66.20;;;;;;5059579;28;20147;-82
2023/09/13 09:32:28;;;;;;;1.65;1.08;;;18.60;1.00;;;;;;5106817;28;20107;-81
2023/09/13 09:34:57;;;;;;;1.45;0.93;;;18.50;66.10;;;;;;5087208;28;20056;-81
2023/09/13 09:37:31;;;;;;;2.35;1.30;;;18.70;99.90;;;;;;5087202;28;20052;-81
2023/09/13 09:39:59;;;;;;;1.58;1.00;;;18.70;99.90;;;;;;5066649;28;20132;-81
2023/09/13 09:42:25;;;;;;;1.23;1.00;;;18.80;99.90;;;;;;5066434;28;20057;-82
2023/09/13 09:44:52;;;;;;;0.90;0.60;;;19.00;90.10;;;;;;5082081;28;20080;-81
2023/09/13 09:47:20;;;;;;;2.17;1.00;;;19.40;1.00;;;;;;5086724;28;20051;-81
2023/09/13 09:49:47;;;;;;;1.23;0.70;;;19.60;62.70;;;;;;5075875;28;20126;-82
2023/09/13 09:52:14;;;;;;;0.93;0.50;;;19.80;1.00;;;;;;5090118;28;20067;-82
2023/09/13 09:54:48;;;;;;;1.05;0.60;;;20.00;99.90;;;;;;5091027;28;20066;-80
2023/09/13 09:57:21;;;;;;;1.25;0.90;;;20.10;46.10;;;;;;5053465;28;20536;-80
2023/09/13 09:59:48;;;;;;;1.20;0.70;;;20.20;1.00;;;;;;5048737;28;20067;-80
2023/09/13 10:02:15;;;;;;;1.48;0.88;;;20.30;1.00;;;;;;5047203;28;20048;-81
2023/09/13 10:04:48;;;;;;;0.90;0.70;;;20.20;1.00;;;;;;5061602;28;20044;-81
2023/09/13 10:07:15;;;;;;;2.00;1.05;;;20.40;99.90;;;;;;5052746;28;20167;-81
2023/09/13 10:09:43;;;;;;;0.70;0.70;;;20.40;99.90;;;;;;5086184;28;20071;-81
2023/09/13 10:12:10;;;;;;;2.65;1.13;;;20.40;99.90;;;;;;5069699;28;20048;-81
2023/09/13 10:14:39;;;;;;;1.02;0.65;;;20.40;1.40;;;;;;5068217;28;20048;-81
2023/09/13 10:17:06;;;;;;;1.35;0.90;;;20.40;1.00;;;;;;5069862;28;20137;-80
2023/09/13 10:19:33;;;;;;;1.17;0.80;;;20.30;1.00;;;;;;5086847;28;20101;-81
2023/09/13 10:22:01;;;;;;;2.33;1.05;;;20.30;1.00;;;;;;5069675;28;20266;-82
2023/09/13 10:24:36;;;;;;;1.63;0.82;;;20.40;1.00;;;;;;5074685;28;20082;-81
2023/09/13 10:27:07;;;;;;;2.35;0.73;;;20.70;1.00;;;;;;5045832;28;20067;-82
2023/09/13 10:29:41;;;;;;;1.88;0.98;;;20.60;1.00;;;;;;5047232;28;20055;-81
2023/09/13 10:32:09;;;;;;;1.67;0.90;;;20.40;1.00;;;;;;5048586;28;20056;-81
2023/09/13 10:34:39;;;;;;;1.55;0.82;;;20.50;1.00;;;;;;5048950;28;20044;-82
2023/09/13 10:37:13;;;;;;;1.30;0.80;;;20.60;1.00;;;;;;5049651;28;20556;-82
2023/09/13 10:39:44;;;;;;;2.10;1.17;;;20.80;1.00;;;;;;5032742;28;20079;-82
2023/09/13 10:42:10;;;;;;;1.23;0.80;;;20.80;1.00;;;;;;5040788;28;20048;-81
2023/09/13 10:44:38;;;;;;;1.80;0.90;;;21.10;99.90;;;;;;5078616;28;20090;-81
2023/09/13 10:47:05;;;;;;;2.90;1.02;;;21.20;99.90;;;;;;5076753;28;20077;-82
2023/09/13 10:49:34;;;;;;;1.90;0.98;;;21.20;99.90;;;;;;5058989;28;20772;-81
2023/09/13 10:52:00;;;;;;;1.95;1.17;;;21.00;99.90;;;;;;5045201;28;20073;-82
2023/09/13 10:54:28;;;;;;;2.28;1.40;;;20.80;99.90;;;;;;5074219;28;20109;-82
2023/09/13 10:56:55;;;;;;;1.55;0.82;;;20.80;99.90;;;;;;5073527;28;20141;-83
2023/09/13 10:59:22;;;;;;;1.83;0.88;;;20.90;99.90;;;;;;5077977;28;20105;-83
2023/09/13 11:01:49;;;;;;;1.33;0.85;;;20.90;99.90;;;;;;5060472;28;20056;-83
2023/09/13 11:04:19;;;;;;;1.55;0.80;;;20.80;99.90;;;;;;5087738;28;20479;-82
2023/09/13 11:06:46;;;;;;;1.40;0.70;;;20.70;99.90;;;;;;5062124;28;20167;-82
2023/09/13 11:09:18;;;;;;;0.95;0.60;;;20.60;99.90;;;;;;5063053;28;20068;-83
2023/09/13 11:11:46;;;;;;;1.15;0.70;;;20.60;99.90;;;;;;5055957;28;20075;-83
2023/09/13 11:14:17;;;;;;;2.47;0.93;;;20.70;99.90;;;;;;5079122;28;20089;-83
2023/09/13 11:16:46;;;;;;;1.60;1.00;;;20.80;99.90;;;;;;5077155;28;20494;-83
2023/09/13 11:19:16;;;;;;;1.80;1.17;;;20.70;99.90;;;;;;5081332;28;20423;-83
2023/09/13 11:21:49;;;;;;;1.88;1.08;;;20.70;99.90;;;;;;5050308;28;20097;-83
2023/09/13 11:24:45;;;;;;;1.38;0.85;;;20.70;99.90;;;;;;5045238;28;20106;-82
2023/09/13 11:27:16;;;;;;;1.40;0.77;;;20.80;99.90;;;;;;5091115;28;20574;-83
2023/09/13 11:29:50;;;;;;;1.90;0.85;;;21.10;99.90;;;;;;5064517;28;20060;-83
2023/09/13 11:32:21;;;;;;;2.55;1.23;;;21.00;99.90;;;;;;5069037;28;20044;-84
2023/09/13 11:34:56;;;;;;;1.23;0.80;;;21.00;99.90;;;;;;5066568;28;20528;-83
2023/09/13 11:37:23;;;;;;;1.55;0.82;;;21.10;99.90;;;;;;5060416;28;20688;-83
2023/09/13 11:40:10;;;;;;;1.17;0.80;;;21.10;99.90;;;;;;5077117;28;20104;-83
2023/09/13 11:42:39;;;;;;;1.55;0.80;;;21.40;99.90;;;;;;5056385;28;20056;-82
2023/09/13 11:45:29;;;;;;;1.27;0.73;;;21.60;99.90;;;;;;5059150;28;20141;-82
2023/09/13 11:48:02;;;;;;;1.50;0.68;;;21.70;99.90;;;;;;5063092;28;20047;-81
2023/09/13 11:50:41;;;;;;;2.03;0.80;;;21.80;99.90;;;;;;5059769;28;21124;-81
2023/09/13 11:53:19;;;;;;;1.42;0.70;;;21.70;99.90;;;;;;5062172;28;20054;-81
2023/09/13 11:55:53;;;;;;;1.17;0.60;;;21.60;99.90;;;;;;5062107;28;20047;-81
2023/09/13 11:58:39;;;;;;;1.08;0.63;;;21.80;99.90;;;;;;5063799;28;20056;-81
2023/09/13 12:01:23;;;;;;;0.80;0.60;;;21.90;99.90;;;;;;5059302;28;20076;-82
2023/09/13 12:03:52;;;;;;;2.97;1.30;;;22.00;99.90;;;;;;5062167;28;20071;-81
2023/09/13 12:06:23;;;;;;;0.70;0.52;;;22.20;99.90;;;;;;5062399;28;20395;-82
2023/09/13 12:08:59;;;;;;;1.25;0.90;;;22.30;99.90;;;;;;5078376;28;20055;-81
2023/09/13 12:11:30;;;;;;;1.30;0.80;;;22.20;99.90;;;;;;5061404;28;20055;-80
2023/09/13 12:13:58;;;;;;;2.40;0.95;;;22.00;99.90;;;;;;5078230;28;20095;-82
2023/09/13 12:16:29;;;;;;;1.13;0.85;;;22.00;99.90;;;;;;5060751;28;20048;-81
2023/09/13 12:18:56;;;;;;;2.03;1.10;;;22.00;99.90;;;;;;5045229;28;20143;-81
2023/09/13 12:21:23;;;;;;;1.60;1.02;;;21.80;99.90;;;;;;5061195;28;20052;-82
2023/09/13 12:23:51;;;;;;;1.27;0.82;;;21.60;99.90;;;;;;5060948;28;20052;-82
2023/09/13 12:26:18;;;;;;;1.88;0.90;;;21.50;99.90;;;;;;5076164;28;20052;-82
2023/09/13 12:28:52;;;;;;;1.52;0.70;;;21.50;99.90;;;;;;5076632;28;20067;-82
2023/09/13 12:31:19;;;;;;;0.88;0.60;;;21.50;99.90;;;;;;5059576;28;20185;-83
2023/09/13 12:33:54;;;;;;;1.58;0.80;;;21.60;99.90;;;;;;5042448;28;20048;-82
2023/09/13 12:36:22;;;;;;;1.67;0.98;;;21.50;99.90;;;;;;5078530;28;20052;-81
2023/09/13 12:38:50;;;;;;;1.40;0.70;;;21.50;99.90;;;;;;5057491;28;20040;-82
2023/09/13 12:41:22;;;;;;;0.80;0.63;;;21.50;99.90;;;;;;5078051;28;20052;-81
2023/09/13 12:43:49;;;;;;;0.68;0.50;;;21.60;99.90;;;;;;5042504;28;20722;-81
2023/09/13 12:46:20;;;;;;;0.93;0.57;;;21.60;99.90;;;;;;5061974;28;20541;-81
2023/09/13 12:48:49;;;;;;;1.25;0.60;;;21.70;99.90;;;;;;5077754;28;20052;-81
2023/09/13 12:51:19;;;;;;;1.27;0.57;;;21.90;99.90;;;;;;5078789;28;20316;-82
2023/09/13 12:53:45;;;;;;;0.88;0.50;;;21.90;99.90;;;;;;5063815;28;20093;-81
2023/09/13 12:56:13;;;;;;;1.10;0.70;;;22.00;99.90;;;;;;5081312;28;20494;-82